Airfield :
LOGIN :

Register | Disclaimer

   EN    FR    IT 

 










Legend :    VFR   Marginal VFR   IFR   Intensive IFR   Very Intensive IFR
Visi :
Ceiling :
>= 8 km
>= 3000ft
5 to 8 km
1000 to 3000 ft
1500m to 5 km
500 to 1000 ft
800 to 1500m
200 to 500 ft
< 800m
< 200 ft
Symbols :   Thunderstorms  Fog  Heavy snow  Heavy precipitations  Wind > 20 kt
SIGMETs :     Misc.  Thunderstorms  Icing  Turbulence  Mountain Waves  Volcanic Ashes







- Airport Elevation : 598 ft
- IATA code : BQH
- Download approach charts


EGKB - Biggin Hill

CURRENT METAR :
  • 191650Z 22002KT 9999 FEW040 13/08 Q1022

EXPIRED METARs :
  • 191620Z VRB03KT 9999 FEW040 14/08 Q1022
  • 191550Z 27005KT 220V310 9999 FEW040 14/07 Q1022
  • 191520Z 25005KT 200V290 9999 FEW040 14/08 Q1022
  • 191450Z 26004KT 230V330 9999 FEW040 14/07 Q1022
  • 191420Z 25005KT 200V280 9999 SCT040 14/08 Q1022

TAF TAF EGKB
Valid from the 19 at 15:00 until the 19 at 22:00 UTC


191358Z 1915/1922 26005KT 9999 SCT030
No reported NOTAMs for that airfield.



MET'MAP, your aeronautical weather chart ! - Copyright ORBIFLY December 2007 - Disclaimer

ORBIFLY MET'MAP TEAM :

Programming & Development : Alexandra Zaïnal
Concept & Development : Baudouin d'Aumeries
Co-Development & Prog : Marc-Olivier Méhu
Technical & hardware support : Manuel Goepfert

Contact : metmap@orbifly.com




SOURCES & CREDITS :

   NOAA